Time;durP1;ratioP1;P1;durP2;ratioP2;P2;SDS_P1;SDS_P2;PMS_P1;PMS_P2;Temp;Humidity;BMP_temperature;BMP_pressure;BME280_temperature;BME280_humidity;BME280_pressure;Samples;Min_cycle;Max_cycle;Signal;HPM_P1;HPM_P2
2023/05/03 00:02:06;;;;;;;;;;;;;;;;;;5094203;28;19952;-27
2023/05/03 00:04:33;;;;;;;;;;;;;;;;;;5094290;28;19922;-27
2023/05/03 00:06:59;;;;;;;;;;;;;;;;;;5094337;28;19908;-24
2023/05/03 00:09:25;;;;;;;;;;;;;;;;;;5094596;28;20319;-26
2023/05/03 00:11:52;;;;;;;;;;;;;;;;;;5094202;28;19923;-27
2023/05/03 00:14:18;;;;;;;;;;;;;;;;;;5094538;28;19909;-25
2023/05/03 00:16:44;;;;;;;;;;;;;;;;;;5094251;28;19919;-24
2023/05/03 00:19:10;;;;;;;;;;;;;;;;;;5094195;28;19908;-24
2023/05/03 00:21:36;;;;;;;;;;;;;;;;;;5093960;28;20303;-25
2023/05/03 00:24:02;;;;;;;;;;;;;;;;;;5094068;28;20337;-24
2023/05/03 00:26:28;;;;;;;;;;;;;;;;;;5094160;28;19947;-24
2023/05/03 00:28:54;;;;;;;;;;;;;;;;;;5096368;28;19908;-24
2023/05/03 00:31:20;;;;;;;;;;;;;;;;;;5098018;28;19908;-30
2023/05/03 00:33:46;;;;;;;;;;;;;;;;;;5096630;28;19916;-23
2023/05/03 00:36:12;;;;;;;;;;;;;;;;;;5096677;28;19919;-24
2023/05/03 00:38:38;;;;;;;;;;;;;;;;;;5097606;28;19912;-26
2023/05/03 00:41:04;;;;;;;;;;;;;;;;;;5097762;28;20338;-23
2023/05/03 00:43:30;;;;;;;;;;;;;;;;;;5097525;28;19908;-25
2023/05/03 00:45:56;;;;;;;;;;;;;;;;;;5097783;28;20269;-26
2023/05/03 00:48:22;;;;;;;;;;;;;;;;;;5097518;28;19915;-24
2023/05/03 00:50:48;;;;;;;;;;;;;;;;;;5096419;28;20317;-25
2023/05/03 00:53:14;;;;;;;;;;;;;;;;;;5097795;28;19908;-27
2023/05/03 00:55:40;;;;;;;;;;;;;;;;;;5097383;28;19908;-31
2023/05/03 00:58:06;;;;;;;;;;;;;;;;;;5097539;28;19908;-23
2023/05/03 01:00:32;;;;;;;;;;;;;;;;;;5097171;28;20254;-26
2023/05/03 01:02:58;;;;;;;;;;;;;;;;;;5097081;28;20244;-25
2023/05/03 01:05:24;;;;;;;;;;;;;;;;;;5097171;28;19908;-23
2023/05/03 01:07:50;;;;;;;;;;;;;;;;;;5097064;28;19969;-26
2023/05/03 01:10:16;;;;;;;;;;;;;;;;;;5097021;28;19915;-24
2023/05/03 01:12:42;;;;;;;;;;;;;;;;;;5097192;28;20009;-22
2023/05/03 01:15:08;;;;;;;;;;;;;;;;;;5096976;28;19908;-23
2023/05/03 01:17:34;;;;;;;;;;;;;;;;;;5097172;28;19916;-24
2023/05/03 01:20:00;;;;;;;;;;;;;;;;;;5095721;28;20317;-24
2023/05/03 01:22:26;;;;;;;;;;;;;;;;;;5096765;28;19922;-29
2023/05/03 01:24:52;;;;;;;;;;;;;;;;;;5096789;28;19962;-29
2023/05/03 01:27:18;;;;;;;;;;;;;;;;;;5096736;28;19908;-23
2023/05/03 01:29:44;;;;;;;;;;;;;;;;;;5096598;28;19908;-24
2023/05/03 01:32:10;;;;;;;;;;;;;;;;;;5096529;28;19912;-25
2023/05/03 01:34:36;;;;;;;;;;;;;;;;;;5097072;28;19915;-23
2023/05/03 01:37:02;;;;;;;;;;;;;;;;;;5096757;28;19908;-25
2023/05/03 01:39:28;;;;;;;;;;;;;;;;;;5096474;28;19919;-24
2023/05/03 01:41:54;;;;;;;;;;;;;;;;;;5096238;28;19911;-30
2023/05/03 01:44:20;;;;;;;;;;;;;;;;;;5096414;28;19958;-26
2023/05/03 01:46:46;;;;;;;;;;;;;;;;;;5096588;28;19904;-27
2023/05/03 01:49:12;;;;;;;;;;;;;;;;;;5096270;28;19919;-26
2023/05/03 01:51:38;;;;;;;;;;;;;;;;;;5096511;28;20331;-23
2023/05/03 01:54:05;;;;;;;;;;;;;;;;;;5096145;28;20003;-30
2023/05/03 01:56:30;;;;;;;;;;;;;;;;;;5096179;28;19908;-24
2023/05/03 01:58:56;;;;;;;;;;;;;;;;;;5096171;28;20375;-24
2023/05/03 02:01:22;;;;;;;;;;;;;;;;;;5094953;28;19965;-24
2023/05/03 02:03:48;;;;;;;;;;;;;;;;;;5095932;28;19908;-23
2023/05/03 02:06:14;;;;;;;;;;;;;;;;;;5095987;28;20339;-24
2023/05/03 02:08:40;;;;;;;;;;;;;;;;;;5095933;28;19912;-25
2023/05/03 02:11:06;;;;;;;;;;;;;;;;;;5096169;28;20061;-25
2023/05/03 02:13:32;;;;;;;;;;;;;;;;;;5095758;28;19916;-23
2023/05/03 02:15:58;;;;;;;;;;;;;;;;;;5096031;28;20007;-23
2023/05/03 02:18:26;;;;;;;;;;;;;;;;;;5095799;28;19908;-25
2023/05/03 02:20:52;;;;;;;;;;;;;;;;;;5095398;28;19934;-25
2023/05/03 02:23:17;;;;;;;;;;;;;;;;;;5095640;28;20386;-23
2023/05/03 02:25:43;;;;;;;;;;;;;;;;;;5095621;28;20254;-23
2023/05/03 02:28:09;;;;;;;;;;;;;;;;;;5095605;28;20416;-23
2023/05/03 02:30:35;;;;;;;;;;;;;;;;;;5095771;28;19908;-23
2023/05/03 02:33:01;;;;;;;;;;;;;;;;;;5094484;28;20258;-23
2023/05/03 02:35:27;;;;;;;;;;;;;;;;;;5095454;28;19969;-24
2023/05/03 02:37:53;;;;;;;;;;;;;;;;;;5094484;28;19927;-23
2023/05/03 02:40:20;;;;;;;;;;;;;;;;;;5095353;28;19969;-29
2023/05/03 02:42:46;;;;;;;;;;;;;;;;;;5095307;28;19961;-23
2023/05/03 02:45:12;;;;;;;;;;;;;;;;;;5094313;28;19908;-26
2023/05/03 02:47:38;;;;;;;;;;;;;;;;;;5095261;28;20304;-23
2023/05/03 02:50:05;;;;;;;;;;;;;;;;;;5095130;28;19916;-23
2023/05/03 02:52:31;;;;;;;;;;;;;;;;;;5094784;28;19912;-23
2023/05/03 02:54:57;;;;;;;;;;;;;;;;;;5095344;28;19964;-26
2023/05/03 02:57:23;;;;;;;;;;;;;;;;;;5094093;28;19991;-23
2023/05/03 02:59:49;;;;;;;;;;;;;;;;;;5095368;28;19908;-23
2023/05/03 03:02:15;;;;;;;;;;;;;;;;;;5095159;28;19915;-23
2023/05/03 03:04:41;;;;;;;;;;;;;;;;;;5094998;28;19908;-25
2023/05/03 03:07:07;;;;;;;;;;;;;;;;;;5094981;28;19908;-24
2023/05/03 03:09:34;;;;;;;;;;;;;;;;;;5094926;28;19950;-24
2023/05/03 03:12:01;;;;;;;;;;;;;;;;;;5094828;28;20012;-25
2023/05/03 03:14:27;;;;;;;;;;;;;;;;;;5094802;28;19995;-23
2023/05/03 03:16:53;;;;;;;;;;;;;;;;;;5094784;28;19947;-23
2023/05/03 03:19:19;;;;;;;;;;;;;;;;;;5094815;28;19908;-24
2023/05/03 03:21:45;;;;;;;;;;;;;;;;;;5094518;28;19920;-24
2023/05/03 03:24:11;;;;;;;;;;;;;;;;;;5093767;28;20003;-29
2023/05/03 03:26:37;;;;;;;;;;;;;;;;;;5095013;28;19904;-29
2023/05/03 03:29:03;;;;;;;;;;;;;;;;;;5094779;28;19957;-27
2023/05/03 03:31:29;;;;;;;;;;;;;;;;;;5094713;28;19911;-25
2023/05/03 03:33:56;;;;;;;;;;;;;;;;;;5093591;28;19908;-23
2023/05/03 03:36:22;;;;;;;;;;;;;;;;;;5094837;28;19905;-24
2023/05/03 03:38:48;;;;;;;;;;;;;;;;;;5094626;28;20244;-28
2023/05/03 03:41:14;;;;;;;;;;;;;;;;;;5094328;28;19923;-26
2023/05/03 03:43:40;;;;;;;;;;;;;;;;;;5094383;28;19999;-27
2023/05/03 03:46:06;;;;;;;;;;;;;;;;;;5094341;28;19909;-24
2023/05/03 03:48:31;;;;;;;;;;;;;;;;;;5094392;28;19945;-25
2023/05/03 03:50:57;;;;;;;;;;;;;;;;;;5094547;28;19919;-24
2023/05/03 03:53:23;;;;;;;;;;;;;;;;;;5094268;28;19965;-23
2023/05/03 03:55:49;;;;;;;;;;;;;;;;;;5094387;28;19908;-26
2023/05/03 03:58:15;;;;;;;;;;;;;;;;;;5094704;28;20319;-27
2023/05/03 04:00:41;;;;;;;;;;;;;;;;;;5094389;28;20350;-23
2023/05/03 04:03:07;;;;;;;;;;;;;;;;;;5095293;28;20328;-26
2023/05/03 04:05:33;;;;;;;;;;;;;;;;;;5098415;28;19912;-30
2023/05/03 04:07:59;;;;;;;;;;;;;;;;;;5097345;28;19908;-29
2023/05/03 04:10:25;;;;;;;;;;;;;;;;;;5098114;28;20385;-27
2023/05/03 04:12:52;;;;;;;;;;;;;;;;;;5097762;28;19912;-28
2023/05/03 04:15:18;;;;;;;;;;;;;;;;;;5098170;28;19919;-31
2023/05/03 04:17:43;;;;;;;;;;;;;;;;;;5097646;28;20361;-23
2023/05/03 04:20:09;;;;;;;;;;;;;;;;;;5097214;28;19999;-27
2023/05/03 04:22:36;;;;;;;;;;;;;;;;;;5096412;28;19969;-30
2023/05/03 04:25:02;;;;;;;;;;;;;;;;;;5097857;28;19981;-30
2023/05/03 04:27:28;;;;;;;;;;;;;;;;;;5098269;28;19915;-27
2023/05/03 04:29:55;;;;;;;;;;;;;;;;;;5097597;28;19912;-27
2023/05/03 04:32:22;;;;;;;;;;;;;;;;;;5096542;28;19945;-27
2023/05/03 04:34:49;;;;;;;;;;;;;;;;;;5097624;28;19985;-28
2023/05/03 04:37:15;;;;;;;;;;;;;;;;;;5097877;28;20412;-26
2023/05/03 04:39:42;;;;;;;;;;;;;;;;;;5097877;28;20338;-24
2023/05/03 04:42:09;;;;;;;;;;;;;;;;;;5097650;28;19912;-25
2023/05/03 04:44:35;;;;;;;;;;;;;;;;;;5096359;28;20275;-24
2023/05/03 04:47:01;;;;;;;;;;;;;;;;;;5097241;28;19919;-31
2023/05/03 04:49:27;;;;;;;;;;;;;;;;;;5097273;28;19908;-25
2023/05/03 04:51:54;;;;;;;;;;;;;;;;;;5097167;28;20212;-29
2023/05/03 04:54:20;;;;;;;;;;;;;;;;;;5097241;28;19908;-28
2023/05/03 04:56:46;;;;;;;;;;;;;;;;;;5097471;28;19931;-29
2023/05/03 04:59:12;;;;;;;;;;;;;;;;;;5097225;28;19965;-26
2023/05/03 05:01:38;;;;;;;;;;;;;;;;;;5097038;28;19955;-33
2023/05/03 05:04:04;;;;;;;;;;;;;;;;;;5095890;28;19930;-30
2023/05/03 05:06:30;;;;;;;;;;;;;;;;;;5097424;28;20003;-24
2023/05/03 05:08:56;;;;;;;;;;;;;;;;;;5096923;28;19908;-24
2023/05/03 05:11:22;;;;;;;;;;;;;;;;;;5097155;28;19950;-23
2023/05/03 05:13:48;;;;;;;;;;;;;;;;;;5097204;28;19931;-25
2023/05/03 05:16:14;;;;;;;;;;;;;;;;;;5096977;28;19923;-30
2023/05/03 05:18:40;;;;;;;;;;;;;;;;;;5095884;28;20228;-23
2023/05/03 05:21:06;;;;;;;;;;;;;;;;;;5096604;28;20020;-24
2023/05/03 05:23:32;;;;;;;;;;;;;;;;;;5095729;28;19908;-25
2023/05/03 05:25:59;;;;;;;;;;;;;;;;;;5096797;28;20250;-23
2023/05/03 05:28:25;;;;;;;;;;;;;;;;;;5096812;28;19908;-24
2023/05/03 05:30:51;;;;;;;;;;;;;;;;;;5096690;28;19974;-28
2023/05/03 05:33:17;;;;;;;;;;;;;;;;;;5096348;28;19909;-25
2023/05/03 05:35:43;;;;;;;;;;;;;;;;;;5096404;28;19915;-25
2023/05/03 05:38:09;;;;;;;;;;;;;;;;;;5096615;28;19930;-25
2023/05/03 05:40:35;;;;;;;;;;;;;;;;;;5096211;28;19923;-23
2023/05/03 05:43:01;;;;;;;;;;;;;;;;;;5095941;28;19912;-24
2023/05/03 05:45:27;;;;;;;;;;;;;;;;;;5095934;28;19909;-25
2023/05/03 05:47:53;;;;;;;;;;;;;;;;;;5096056;28;20070;-26
2023/05/03 05:50:19;;;;;;;;;;;;;;;;;;5096257;28;19956;-26
2023/05/03 05:52:45;;;;;;;;;;;;;;;;;;5096028;28;19908;-23
2023/05/03 05:55:13;;;;;;;;;;;;;;;;;;5096315;28;20404;-29
2023/05/03 05:57:39;;;;;;;;;;;;;;;;;;5095792;28;19962;-27
2023/05/03 06:00:13;;;;;;;;;;;;;;;;;;5095748;28;19916;-24
2023/05/03 06:02:39;;;;;;;;;;;;;;;;;;5094690;28;19912;-23
2023/05/03 06:05:05;;;;;;;;;;;;;;;;;;5095633;28;20351;-23
2023/05/03 06:07:31;;;;;;;;;;;;;;;;;;5095773;28;19923;-26
2023/05/03 06:09:57;;;;;;;;;;;;;;;;;;5095466;28;19916;-23
2023/05/03 06:12:23;;;;;;;;;;;;;;;;;;5094497;28;19919;-23
2023/05/03 06:14:49;;;;;;;;;;;;;;;;;;5094809;28;19912;-25
2023/05/03 06:17:16;;;;;;;;;;;;;;;;;;5094709;28;19915;-26
2023/05/03 06:19:42;;;;;;;;;;;;;;;;;;5094483;28;20349;-28
2023/05/03 06:22:08;;;;;;;;;;;;;;;;;;5094776;28;20014;-25
2023/05/03 06:24:34;;;;;;;;;;;;;;;;;;5094964;28;19908;-25
2023/05/03 06:27:00;;;;;;;;;;;;;;;;;;5093871;28;20346;-25
2023/05/03 06:29:27;;;;;;;;;;;;;;;;;;5094838;28;19908;-25
2023/05/03 06:31:53;;;;;;;;;;;;;;;;;;5094727;28;19908;-25
2023/05/03 06:34:20;;;;;;;;;;;;;;;;;;5094692;28;19916;-25
2023/05/03 06:36:46;;;;;;;;;;;;;;;;;;5095120;28;20239;-23
2023/05/03 06:39:12;;;;;;;;;;;;;;;;;;5095531;28;19919;-25
2023/05/03 06:41:38;;;;;;;;;;;;;;;;;;5095217;28;20410;-24
2023/05/03 06:44:06;;;;;;;;;;;;;;;;;;5095392;28;19908;-26
2023/05/03 06:46:31;;;;;;;;;;;;;;;;;;5094270;28;19959;-23
2023/05/03 06:48:57;;;;;;;;;;;;;;;;;;5095218;28;19951;-26
2023/05/03 06:51:27;;;;;;;;;;;;;;;;;;5095260;28;20235;-25
2023/05/03 06:53:53;;;;;;;;;;;;;;;;;;5095114;28;19907;-27
2023/05/03 06:56:18;;;;;;;;;;;;;;;;;;5095107;28;19915;-25
2023/05/03 06:58:44;;;;;;;;;;;;;;;;;;5095032;28;19908;-25
2023/05/03 07:01:10;;;;;;;;;;;;;;;;;;5094880;28;20061;-28
2023/05/03 07:03:36;;;;;;;;;;;;;;;;;;5094951;28;19920;-26
2023/05/03 07:06:03;;;;;;;;;;;;;;;;;;5094941;28;20269;-26
2023/05/03 07:08:29;;;;;;;;;;;;;;;;;;5094730;28;19958;-28
2023/05/03 07:10:55;;;;;;;;;;;;;;;;;;5094320;28;19908;-25
2023/05/03 07:13:21;;;;;;;;;;;;;;;;;;5094540;28;19918;-26
2023/05/03 07:15:47;;;;;;;;;;;;;;;;;;5094485;28;20030;-31
2023/05/03 07:18:13;;;;;;;;;;;;;;;;;;5094807;28;20386;-26
2023/05/03 07:20:39;;;;;;;;;;;;;;;;;;5094113;28;20313;-28
2023/05/03 07:23:06;;;;;;;;;;;;;;;;;;5094281;28;19908;-26
2023/05/03 07:25:32;;;;;;;;;;;;;;;;;;5094140;28;19908;-24
2023/05/03 07:27:58;;;;;;;;;;;;;;;;;;5094335;28;20315;-27
2023/05/03 07:30:24;;;;;;;;;;;;;;;;;;5094554;28;19908;-23
2023/05/03 07:32:50;;;;;;;;;;;;;;;;;;5094497;28;19965;-27
2023/05/03 07:35:15;;;;;;;;;;;;;;;;;;5093544;28;20211;-23
2023/05/03 07:37:42;;;;;;;;;;;;;;;;;;5096667;28;20252;-24
2023/05/03 07:40:08;;;;;;;;;;;;;;;;;;5098807;28;19908;-27
2023/05/03 07:42:34;;;;;;;;;;;;;;;;;;5098518;28;20321;-30
2023/05/03 07:45:00;;;;;;;;;;;;;;;;;;5098429;28;20339;-26
2023/05/03 07:47:26;;;;;;;;;;;;;;;;;;5098408;28;19942;-24
2023/05/03 07:49:52;;;;;;;;;;;;;;;;;;5098535;28;20304;-25
2023/05/03 07:52:18;;;;;;;;;;;;;;;;;;5098091;28;19908;-24
2023/05/03 07:54:44;;;;;;;;;;;;;;;;;;5098257;28;20300;-23
2023/05/03 07:57:11;;;;;;;;;;;;;;;;;;5098207;28;19908;-24
2023/05/03 07:59:37;;;;;;;;;;;;;;;;;;5097844;28;19965;-25
2023/05/03 08:02:03;;;;;;;;;;;;;;;;;;5097758;28;19912;-27
2023/05/03 08:04:29;;;;;;;;;;;;;;;;;;5098247;28;19915;-26
2023/05/03 08:06:55;;;;;;;;;;;;;;;;;;5098296;28;19905;-35
2023/05/03 08:09:22;;;;;;;;;;;;;;;;;;5098353;28;19916;-24
2023/05/03 08:11:47;;;;;;;;;;;;;;;;;;5098224;28;19908;-27
2023/05/03 08:14:13;;;;;;;;;;;;;;;;;;5098647;28;19953;-26
2023/05/03 08:16:40;;;;;;;;;;;;;;;;;;5097832;28;19998;-28
2023/05/03 08:19:06;;;;;;;;;;;;;;;;;;5097794;28;20260;-25
2023/05/03 08:21:34;;;;;;;;;;;;;;;;;;5097657;28;19985;-24
2023/05/03 08:24:00;;;;;;;;;;;;;;;;;;5097704;28;19908;-28
2023/05/03 08:26:28;;;;;;;;;;;;;;;;;;5097745;28;19935;-26
2023/05/03 08:28:54;;;;;;;;;;;;;;;;;;5097683;28;19912;-25
2023/05/03 08:31:20;;;;;;;;;;;;;;;;;;5097759;28;19909;-26
2023/05/03 08:33:46;;;;;;;;;;;;;;;;;;5097462;28;19930;-23
2023/05/03 08:36:12;;;;;;;;;;;;;;;;;;5097336;28;20311;-25
2023/05/03 08:38:40;;;;;;;;;;;;;;;;;;5097517;28;20255;-26
2023/05/03 08:41:06;;;;;;;;;;;;;;;;;;5096897;28;19912;-25
2023/05/03 08:43:31;;;;;;;;;;;;;;;;;;5096471;28;19912;-27
2023/05/03 08:45:57;;;;;;;;;;;;;;;;;;5096259;28;20012;-24
2023/05/03 08:48:23;;;;;;;;;;;;;;;;;;5095838;28;19908;-23
2023/05/03 08:50:50;;;;;;;;;;;;;;;;;;5096085;28;19950;-27
2023/05/03 08:53:16;;;;;;;;;;;;;;;;;;5096892;28;19908;-26
2023/05/03 08:55:43;;;;;;;;;;;;;;;;;;5096199;28;20007;-27
2023/05/03 08:58:11;;;;;;;;;;;;;;;;;;5096347;28;19908;-27
2023/05/03 09:00:37;;;;;;;;;;;;;;;;;;5095983;28;20043;-23
2023/05/03 09:03:03;;;;;;;;;;;;;;;;;;5095877;28;19920;-25
2023/05/03 09:05:29;;;;;;;;;;;;;;;;;;5095816;28;20333;-23
2023/05/03 09:07:55;;;;;;;;;;;;;;;;;;5094904;28;20007;-23
2023/05/03 09:10:21;;;;;;;;;;;;;;;;;;5096155;28;19919;-25
2023/05/03 09:12:47;;;;;;;;;;;;;;;;;;5095798;28;19935;-25
2023/05/03 09:15:13;;;;;;;;;;;;;;;;;;5095817;28;20213;-26
2023/05/03 09:17:39;;;;;;;;;;;;;;;;;;5095987;28;20050;-27
2023/05/03 09:20:07;;;;;;;;;;;;;;;;;;5094437;28;19920;-24
2023/05/03 09:22:35;;;;;;;;;;;;;;;;;;5094560;28;20339;-25
2023/05/03 09:25:01;;;;;;;;;;;;;;;;;;5095732;28;20329;-27
2023/05/03 09:27:27;;;;;;;;;;;;;;;;;;5096224;28;19951;-27
2023/05/03 09:29:53;;;;;;;;;;;;;;;;;;5096352;28;19919;-24
2023/05/03 09:32:19;;;;;;;;;;;;;;;;;;5095996;28;19908;-25
2023/05/03 09:34:44;;;;;;;;;;;;;;;;;;5096096;28;19915;-26
2023/05/03 09:37:12;;;;;;;;;;;;;;;;;;5095048;28;19970;-23
2023/05/03 09:39:38;;;;;;;;;;;;;;;;;;5096197;28;19915;-29
2023/05/03 09:42:04;;;;;;;;;;;;;;;;;;5095889;28;19912;-27
2023/05/03 09:44:30;;;;;;;;;;;;;;;;;;5096202;28;20003;-25
2023/05/03 09:46:56;;;;;;;;;;;;;;;;;;5095605;28;20310;-25
2023/05/03 09:49:22;;;;;;;;;;;;;;;;;;5096596;28;19947;-27
2023/05/03 09:51:48;;;;;;;;;;;;;;;;;;5095806;28;20200;-25
2023/05/03 09:54:14;;;;;;;;;;;;;;;;;;5095032;28;19916;-24
2023/05/03 09:56:40;;;;;;;;;;;;;;;;;;5094638;28;20406;-26
2023/05/03 09:59:07;;;;;;;;;;;;;;;;;;5095692;28;20193;-24
2023/05/03 10:01:34;;;;;;;;;;;;;;;;;;5094450;28;20010;-25
2023/05/03 10:04:00;;;;;;;;;;;;;;;;;;5095704;28;20228;-30
2023/05/03 10:06:28;;;;;;;;;;;;;;;;;;5095656;28;19912;-23
2023/05/03 10:08:54;;;;;;;;;;;;;;;;;;5095648;28;20235;-27
2023/05/03 10:11:20;;;;;;;;;;;;;;;;;;5094495;28;19962;-29
2023/05/03 10:13:46;;;;;;;;;;;;;;;;;;5095499;28;19908;-26
2023/05/03 10:16:13;;;;;;;;;;;;;;;;;;5095468;28;19908;-24
2023/05/03 10:18:39;;;;;;;;;;;;;;;;;;5095728;28;19908;-24
2023/05/03 10:21:04;;;;;;;;;;;;;;;;;;5094995;28;20343;-27
2023/05/03 10:23:30;;;;;;;;;;;;;;;;;;5094973;28;19919;-25
2023/05/03 10:25:56;;;;;;;;;;;;;;;;;;5095525;28;19915;-26
2023/05/03 10:28:22;;;;;;;;;;;;;;;;;;5095312;28;19969;-27
2023/05/03 10:30:48;;;;;;;;;;;;;;;;;;5094953;28;19909;-27
2023/05/03 10:33:15;;;;;;;;;;;;;;;;;;5095072;28;19908;-30
2023/05/03 10:35:40;;;;;;;;;;;;;;;;;;5094974;28;20254;-25
2023/05/03 10:38:06;;;;;;;;;;;;;;;;;;5094986;28;19908;-27
2023/05/03 10:40:32;;;;;;;;;;;;;;;;;;5095240;28;19947;-25
2023/05/03 10:42:59;;;;;;;;;;;;;;;;;;5094673;28;19916;-25
2023/05/03 10:45:25;;;;;;;;;;;;;;;;;;5094972;28;19931;-28
2023/05/03 10:47:51;;;;;;;;;;;;;;;;;;5094902;28;20355;-27
2023/05/03 10:50:17;;;;;;;;;;;;;;;;;;5094835;28;19908;-25
2023/05/03 10:52:43;;;;;;;;;;;;;;;;;;5095583;28;19943;-29
2023/05/03 10:55:09;;;;;;;;;;;;;;;;;;5094631;28;19915;-28
2023/05/03 10:57:35;;;;;;;;;;;;;;;;;;5094089;28;20292;-27
2023/05/03 11:00:06;;;;;;;;;;;;;;;;;;5094086;28;19923;-26
2023/05/03 11:02:31;;;;;;;;;;;;;;;;;;5094139;28;19919;-27
2023/05/03 11:04:57;;;;;;;;;;;;;;;;;;5093968;28;19908;-25
2023/05/03 11:07:24;;;;;;;;;;;;;;;;;;5094081;28;19908;-25
2023/05/03 11:09:51;;;;;;;;;;;;;;;;;;5093995;28;19908;-28
2023/05/03 11:12:17;;;;;;;;;;;;;;;;;;5093566;28;20018;-25
2023/05/03 11:14:42;;;;;;;;;;;;;;;;;;5094000;28;19908;-26
2023/05/03 11:17:08;;;;;;;;;;;;;;;;;;5093800;28;19973;-27
2023/05/03 11:19:34;;;;;;;;;;;;;;;;;;5093746;28;20255;-25
2023/05/03 11:22:02;;;;;;;;;;;;;;;;;;5096571;28;21203;-28
2023/05/03 11:24:28;;;;;;;;;;;;;;;;;;5094174;28;19916;-28
2023/05/03 11:26:54;;;;;;;;;;;;;;;;;;5094385;28;19910;-28
2023/05/03 11:29:20;;;;;;;;;;;;;;;;;;5094363;28;20343;-24
2023/05/03 11:31:46;;;;;;;;;;;;;;;;;;5094283;28;19934;-27
2023/05/03 11:34:13;;;;;;;;;;;;;;;;;;5094447;28;19908;-31
2023/05/03 11:36:39;;;;;;;;;;;;;;;;;;5094453;28;19916;-27
2023/05/03 11:39:05;;;;;;;;;;;;;;;;;;5094616;28;19908;-28
2023/05/03 11:41:31;;;;;;;;;;;;;;;;;;5094453;28;20069;-28
2023/05/03 11:43:57;;;;;;;;;;;;;;;;;;5094897;28;19950;-29
2023/05/03 11:46:23;;;;;;;;;;;;;;;;;;5095163;28;19908;-30
2023/05/03 11:48:49;;;;;;;;;;;;;;;;;;5094618;28;19908;-26
2023/05/03 11:51:16;;;;;;;;;;;;;;;;;;5094405;28;19916;-27
2023/05/03 11:53:42;;;;;;;;;;;;;;;;;;5093428;28;19908;-24
2023/05/03 11:56:08;;;;;;;;;;;;;;;;;;5094580;28;20210;-27
2023/05/03 11:58:34;;;;;;;;;;;;;;;;;;5094044;28;19908;-29
2023/05/03 12:01:00;;;;;;;;;;;;;;;;;;5094423;28;19912;-24
2023/05/03 12:03:27;;;;;;;;;;;;;;;;;;5094359;28;19912;-26
2023/05/03 12:05:53;;;;;;;;;;;;;;;;;;5094648;28;19947;-25
2023/05/03 12:08:20;;;;;;;;;;;;;;;;;;5094344;28;19919;-28
2023/05/03 12:10:46;;;;;;;;;;;;;;;;;;5093445;28;19908;-27
2023/05/03 12:13:15;;;;;;;;;;;;;;;;;;5094217;28;19915;-24
2023/05/03 12:15:44;;;;;;;;;;;;;;;;;;5094442;28;20414;-31
2023/05/03 12:18:10;;;;;;;;;;;;;;;;;;5094113;28;19974;-27
2023/05/03 12:20:36;;;;;;;;;;;;;;;;;;5093731;28;19974;-25
2023/05/03 12:23:02;;;;;;;;;;;;;;;;;;5094217;28;20338;-27
2023/05/03 12:25:28;;;;;;;;;;;;;;;;;;5097666;28;19908;-25
2023/05/03 12:27:54;;;;;;;;;;;;;;;;;;5097654;28;19915;-30
2023/05/03 12:30:20;;;;;;;;;;;;;;;;;;5097380;28;19919;-26
2023/05/03 12:32:47;;;;;;;;;;;;;;;;;;5097918;28;19908;-26
2023/05/03 12:35:13;;;;;;;;;;;;;;;;;;5096408;28;20015;-25
2023/05/03 12:37:39;;;;;;;;;;;;;;;;;;5097416;28;19958;-24
2023/05/03 12:40:05;;;;;;;;;;;;;;;;;;5096355;28;19908;-26
2023/05/03 12:42:31;;;;;;;;;;;;;;;;;;5096187;28;20015;-28
2023/05/03 12:44:57;;;;;;;;;;;;;;;;;;5097486;28;20315;-25
2023/05/03 12:47:23;;;;;;;;;;;;;;;;;;5097386;28;19970;-24
2023/05/03 12:49:49;;;;;;;;;;;;;;;;;;5097264;28;20023;-29
2023/05/03 12:52:15;;;;;;;;;;;;;;;;;;5095986;28;19908;-25
2023/05/03 12:54:41;;;;;;;;;;;;;;;;;;5096092;28;19908;-24
2023/05/03 12:57:08;;;;;;;;;;;;;;;;;;5097054;28;20264;-24
2023/05/03 12:59:35;;;;;;;;;;;;;;;;;;5096593;28;20404;-25
2023/05/03 13:02:01;;;;;;;;;;;;;;;;;;5096600;28;19912;-26
2023/05/03 13:04:27;;;;;;;;;;;;;;;;;;5097015;28;20248;-25
2023/05/03 13:06:52;;;;;;;;;;;;;;;;;;5096932;28;19904;-30
2023/05/03 13:09:18;;;;;;;;;;;;;;;;;;5095876;28;20008;-23
2023/05/03 13:11:45;;;;;;;;;;;;;;;;;;5096819;28;19904;-28
2023/05/03 13:14:13;;;;;;;;;;;;;;;;;;5097056;28;19908;-27
2023/05/03 13:16:40;;;;;;;;;;;;;;;;;;5096610;28;19912;-25
2023/05/03 13:19:06;;;;;;;;;;;;;;;;;;5096689;28;19915;-24
2023/05/03 13:21:32;;;;;;;;;;;;;;;;;;5096646;28;20278;-27
2023/05/03 13:23:58;;;;;;;;;;;;;;;;;;5096474;28;19952;-24
2023/05/03 13:26:24;;;;;;;;;;;;;;;;;;5096627;28;19908;-30
2023/05/03 13:28:50;;;;;;;;;;;;;;;;;;5095296;28;19998;-25
2023/05/03 13:31:17;;;;;;;;;;;;;;;;;;5096336;28;20012;-25
2023/05/03 13:33:43;;;;;;;;;;;;;;;;;;5096271;28;19908;-30
2023/05/03 13:36:10;;;;;;;;;;;;;;;;;;5096152;28;20236;-24
2023/05/03 13:38:36;;;;;;;;;;;;;;;;;;5096198;28;20342;-23
2023/05/03 13:41:02;;;;;;;;;;;;;;;;;;5096140;28;19977;-23
2023/05/03 13:43:28;;;;;;;;;;;;;;;;;;5096091;28;19920;-24
2023/05/03 13:45:54;;;;;;;;;;;;;;;;;;5095921;28;19965;-26
2023/05/03 13:48:20;;;;;;;;;;;;;;;;;;5096325;28;19908;-25
2023/05/03 13:50:46;;;;;;;;;;;;;;;;;;5096134;28;20353;-25
2023/05/03 13:53:12;;;;;;;;;;;;;;;;;;5096859;28;20231;-26
2023/05/03 13:55:38;;;;;;;;;;;;;;;;;;5095000;28;20000;-24
2023/05/03 13:58:04;;;;;;;;;;;;;;;;;;5095907;28;20098;-26
2023/05/03 14:00:30;;;;;;;;;;;;;;;;;;5095871;28;19908;-26
2023/05/03 14:02:56;;;;;;;;;;;;;;;;;;5096086;28;20053;-23
2023/05/03 14:05:22;;;;;;;;;;;;;;;;;;5096005;28;19976;-26
2023/05/03 14:07:48;;;;;;;;;;;;;;;;;;5095545;28;20258;-24
2023/05/03 14:10:14;;;;;;;;;;;;;;;;;;5095405;28;19931;-28
2023/05/03 14:12:40;;;;;;;;;;;;;;;;;;5095077;28;20353;-23
2023/05/03 14:15:06;;;;;;;;;;;;;;;;;;5094510;28;20261;-24
2023/05/03 14:17:33;;;;;;;;;;;;;;;;;;5095500;28;19912;-25
2023/05/03 14:19:58;;;;;;;;;;;;;;;;;;5095758;28;19982;-26
2023/05/03 14:22:25;;;;;;;;;;;;;;;;;;5095192;28;19920;-28
2023/05/03 14:24:51;;;;;;;;;;;;;;;;;;5095353;28;19920;-25
2023/05/03 14:27:20;;;;;;;;;;;;;;;;;;5095307;28;19908;-27
2023/05/03 14:29:46;;;;;;;;;;;;;;;;;;5095384;28;20015;-26
2023/05/03 14:32:12;;;;;;;;;;;;;;;;;;5095371;28;19908;-27
2023/05/03 14:34:38;;;;;;;;;;;;;;;;;;5095365;28;19908;-23
2023/05/03 14:37:04;;;;;;;;;;;;;;;;;;5095080;28;20263;-27
2023/05/03 14:39:30;;;;;;;;;;;;;;;;;;5095139;28;20249;-24
2023/05/03 14:41:56;;;;;;;;;;;;;;;;;;5095101;28;20003;-30
2023/05/03 14:44:22;;;;;;;;;;;;;;;;;;5095205;28;19918;-25
2023/05/03 14:46:48;;;;;;;;;;;;;;;;;;5094235;28;19911;-23
2023/05/03 14:49:16;;;;;;;;;;;;;;;;;;5094825;28;20339;-29
2023/05/03 14:51:42;;;;;;;;;;;;;;;;;;5094676;28;19908;-24
2023/05/03 14:54:08;;;;;;;;;;;;;;;;;;5095618;28;19951;-25
2023/05/03 14:56:34;;;;;;;;;;;;;;;;;;5094632;28;19904;-27
2023/05/03 14:59:00;;;;;;;;;;;;;;;;;;5094397;28;19967;-27
2023/05/03 15:01:26;;;;;;;;;;;;;;;;;;5094652;28;20285;-26
2023/05/03 15:03:52;;;;;;;;;;;;;;;;;;5094815;28;19908;-31
2023/05/03 15:06:18;;;;;;;;;;;;;;;;;;5094871;28;20307;-26
2023/05/03 15:08:44;;;;;;;;;;;;;;;;;;5094624;28;20004;-29
2023/05/03 15:11:11;;;;;;;;;;;;;;;;;;5094358;28;19908;-23
2023/05/03 15:13:37;;;;;;;;;;;;;;;;;;5094299;28;19958;-26
2023/05/03 15:16:03;;;;;;;;;;;;;;;;;;5093871;28;19916;-24
2023/05/03 15:18:29;;;;;;;;;;;;;;;;;;5092215;28;19919;-26
2023/05/03 15:20:55;;;;;;;;;;;;;;;;;;5092200;28;19927;-24
2023/05/03 15:23:21;;;;;;;;;;;;;;;;;;5093725;28;19916;-25
2023/05/03 15:25:47;;;;;;;;;;;;;;;;;;5092460;28;20015;-24
2023/05/03 15:28:13;;;;;;;;;;;;;;;;;;5093573;28;19908;-24
2023/05/03 15:30:39;;;;;;;;;;;;;;;;;;5093467;28;19924;-30
2023/05/03 15:33:05;;;;;;;;;;;;;;;;;;5093494;28;19965;-28
2023/05/03 15:35:31;;;;;;;;;;;;;;;;;;5092189;28;20300;-27
2023/05/03 15:37:57;;;;;;;;;;;;;;;;;;5093708;28;19908;-25
2023/05/03 15:40:24;;;;;;;;;;;;;;;;;;5093691;28;20227;-28
2023/05/03 15:42:50;;;;;;;;;;;;;;;;;;5094152;28;20247;-27
2023/05/03 15:45:17;;;;;;;;;;;;;;;;;;5094451;28;19908;-27
2023/05/03 15:47:43;;;;;;;;;;;;;;;;;;5093192;28;19991;-27
2023/05/03 15:50:09;;;;;;;;;;;;;;;;;;5094276;28;19935;-24
2023/05/03 15:52:35;;;;;;;;;;;;;;;;;;5093809;28;20254;-30
2023/05/03 15:55:02;;;;;;;;;;;;;;;;;;5094145;28;19912;-25
2023/05/03 15:57:28;;;;;;;;;;;;;;;;;;5093856;28;19908;-30
2023/05/03 15:59:54;;;;;;;;;;;;;;;;;;5098115;28;19962;-25
2023/05/03 16:02:20;;;;;;;;;;;;;;;;;;5097802;28;20006;-23
2023/05/03 16:04:47;;;;;;;;;;;;;;;;;;5097867;28;19943;-26
2023/05/03 16:07:13;;;;;;;;;;;;;;;;;;5096571;28;19908;-24
2023/05/03 16:09:39;;;;;;;;;;;;;;;;;;5097831;28;19909;-23
2023/05/03 16:12:05;;;;;;;;;;;;;;;;;;5096548;28;20025;-25
2023/05/03 16:14:31;;;;;;;;;;;;;;;;;;5098439;28;19908;-27
2023/05/03 16:16:58;;;;;;;;;;;;;;;;;;5097803;28;19953;-25
2023/05/03 16:19:24;;;;;;;;;;;;;;;;;;5097797;28;19912;-22
2023/05/03 16:21:50;;;;;;;;;;;;;;;;;;5097261;28;19920;-25
2023/05/03 16:24:16;;;;;;;;;;;;;;;;;;5097920;28;19919;-29
2023/05/03 16:26:42;;;;;;;;;;;;;;;;;;5097642;28;19919;-28
2023/05/03 16:29:09;;;;;;;;;;;;;;;;;;5097733;28;19999;-26
2023/05/03 16:31:35;;;;;;;;;;;;;;;;;;5097921;28;19905;-26
2023/05/03 16:34:01;;;;;;;;;;;;;;;;;;5097167;28;20314;-22
2023/05/03 16:36:27;;;;;;;;;;;;;;;;;;5097732;28;20253;-23
2023/05/03 16:38:53;;;;;;;;;;;;;;;;;;5097671;28;19908;-28